Latest Weather Observations for Edinburgh

IDS60801

Issued at 7:35 am CST Monday 22 September 2014 (issued every 30 minutes, with the page automatically refreshed every 10 minutes)

About weather observations | Map of weather stations | Latest weather observations for SA | Other Formats
Station Details ID: 023083 Name: EDINBURGH RAAF Lat: -34.71 Lon: 138.62 Height: 16.54 m
Data from the previous 72 hours. | See also: Recent months at Edinburgh
Date/Time
CST
Temp
°C
App
Temp
°C
Dew
Point
Rel
Hum
%
Delta-T
°C
Wind Press
QNH
hPa
Press
MSL
hPa
Rain
since 9 am
mm
Dir
 
Spd
km/h
Gust
km/h
Spd
kts
Gust
kts
22/07:30am 15.0 9.3 0.8 38 6.1 NE 20 24 11 13 1026.1 1026.1 0.0
22/07:00am 12.8 7.3 0.5 43 5.1 NE 19 20 10 11 1026.1 1026.1 0.0
22/06:30am 11.4 5.6 -0.1 45 4.6 ENE 20 24 11 13 1026.0 1026.0 0.0
22/06:00am 8.3 3.2 1.0 60 2.9 ENE 17 19 9 10 1025.9 1025.9 0.0
22/05:30am 8.3 3.7 1.5 62 2.8 ENE 15 19 8 10 1025.7 1025.7 0.0
22/05:00am 6.9 2.3 1.4 68 2.2 NE 15 17 8 9 1025.7 1025.7 0.0
22/04:30am 6.9 1.9 1.4 68 2.2 NE 17 19 9 10 1025.7 1025.7 0.0
22/04:00am 6.7 1.4 2.0 72 1.9 NE 19 20 10 11 1025.5 1025.5 0.0
22/03:30am 5.7 0.4 1.6 75 1.6 NNE 19 20 10 11 1025.6 1025.6 0.0
22/03:00am 6.5 2.7 1.8 72 1.9 NE 11 13 6 7 1025.6 1025.6 0.0
22/02:30am 6.5 2.3 1.8 72 1.9 NE 13 17 7 9 1025.8 1025.8 0.0
22/02:00am 5.9 2.0 1.1 71 1.9 N 11 13 6 7 1026.2 1026.2 0.0
22/01:30am 9.6 6.8 1.8 58 3.2 E 6 9 3 5 1026.3 1026.3 0.0
22/01:00am 8.8 5.5 2.6 65 2.6 NE 9 11 5 6 1026.7 1026.7 0.0
22/12:30am 8.1 4.3 1.7 64 2.6 NE 11 15 6 8 1026.6 1026.6 0.0
22/12:00am 8.4 5.0 1.8 63 2.7 NE 9 11 5 6 1026.6 1026.6 0.0
 
Date/Time
CST
Temp
°C
App
Temp
°C
Dew
Point
Rel
Hum
%
Delta-T
°C
Wind Press
QNH
hPa
Press
MSL
hPa
Rain
since 9 am
mm
Dir
 
Spd
km/h
Gust
km/h
Spd
kts
Gust
kts
21/11:30pm 10.5 5.5 1.6 54 3.7 NNE 17 20 9 11 1026.5 1026.5 0.0
21/11:26pm 10.2 4.8 1.1 53 3.8 NNE 19 20 10 11 1026.5 1026.5 0.0
21/11:00pm 15.3 11.2 -0.1 35 6.5 E 11 17 6 9 1026.5 1026.5 0.0
21/10:30pm 14.6 10.6 0.8 39 5.9 E 11 15 6 8 1026.7 1026.7 0.0
21/10:00pm 10.6 7.9 2.9 59 3.3 E 6 9 3 5 1027.0 1027.0 0.0
21/09:30pm 11.9 10.0 2.9 54 3.9 NE 2 7 1 4 1027.3 1027.3 0.0
21/09:00pm 12.0 9.1 2.5 52 4.1 NE 7 9 4 5 1027.4 1027.4 0.0
21/08:30pm 12.4 9.5 4.6 59 3.5 NNE 9 11 5 6 1027.2 1027.2 0.0
21/08:00pm 11.8 10.6 4.5 61 3.3 E 0 0 0 0 1027.2 1027.2 0.0
21/07:30pm 14.5 12.0 4.8 52 4.5 S 7 9 4 5 1027.1 1027.1 0.0
21/07:00pm 16.8 13.2 4.8 45 5.7 SSW 13 15 7 8 1026.9 1026.9 0.0
21/06:30pm 16.2 13.3 4.9 47 5.3 SSW 9 13 5 7 1026.7 1026.7 0.0
21/06:00pm 19.1 16.0 1.6 31 7.9 NE 7 11 4 6 1026.5 1026.5 0.0
21/05:30pm 21.4 16.9 0.0 24 9.5 NE 13 19 7 10 1026.5 1026.5 0.0
21/05:00pm 22.3 17.7 1.3 25 9.7 ENE 15 19 8 10 1026.4 1026.4 0.0
21/04:30pm 22.7 18.1 1.7 25 9.7 NE 15 24 8 13 1026.3 1026.3 0.0
21/04:00pm 22.9 17.9 1.3 24 10.0 NE 17 26 9 14 1026.1 1026.1 0.0
21/03:30pm 23.0 17.8 0.2 22 10.3 NNE 17 26 9 14 1026.1 1026.1 0.0
21/03:00pm 23.3 17.7 1.0 23 10.3 ENE 20 24 11 13 1026.4 1026.4 0.0
21/02:30pm 23.1 18.5 -1.1 20 10.7 NNE 13 19 7 10 1026.8 1026.8 0.0
21/02:00pm 23.1 17.9 -2.5 18 11.1 NNE 15 26 8 14 1027.1 1027.1 0.0
21/01:30pm 23.4 18.1 -0.8 20 10.8 NNE 17 24 9 13 1027.5 1027.5 0.0
21/01:00pm 22.6 18.6 -2.2 19 10.7 NNE 9 17 5 9 1028.1 1028.1 0.0
21/12:30pm 22.1 17.7 0.6 24 9.7 NNE 13 19 7 10 1028.8 1028.8 0.0
21/12:00pm 22.2 18.1 2.3 27 9.3 NNE 13 24 7 13 1029.1 1029.1 0.0
21/11:30am 21.2 17.4 1.5 27 9.0 NNE 11 17 6 9 1029.6 1029.6 0.0
21/11:00am 21.5 17.8 2.2 28 9.0 NNE 11 20 6 11 1029.8 1029.8 0.0
21/10:30am 20.4 15.6 2.7 31 8.2 NNE 17 20 9 11 1030.1 1030.1 0.0
21/10:00am 19.8 14.4 2.2 31 8.1 NE 20 28 11 15 1030.3 1030.3 0.0
21/09:30am 19.3 13.5 2.2 32 7.8 NE 22 28 12 15 1030.5 1030.5 0.0
21/09:00am 18.4 13.2 2.3 34 7.3 NNE 19 26 10 14 1030.5 1030.5 0.0
21/08:30am 17.7 13.2 2.1 35 7.0 NE 15 20 8 11 1030.1 1030.1 0.0
21/08:00am 14.1 11.6 3.8 50 4.7 W 6 9 3 5 1030.0 1030.0 0.0
21/07:30am 10.8 8.9 4.7 66 2.7 WNW 4 7 2 4 1029.7 1029.7 0.0
21/07:00am 8.4 6.6 3.3 70 2.2 W 2 6 1 3 1029.6 1029.6 0.0
21/06:30am 10.8 7.4 2.1 55 3.7 ENE 9 11 5 6 1029.2 1029.2 0.0
21/06:00am 9.3 6.0 2.4 62 2.9 NE 9 11 5 6 1028.7 1028.7 0.0
21/05:30am 10.0 7.6 1.9 57 3.4 E 4 9 2 5 1028.5 1028.5 0.0
21/05:00am 11.4 8.0 1.9 52 4.0 E 9 11 5 6 1028.1 1028.1 0.0
21/04:30am 12.6 9.3 2.2 49 4.5 E 9 17 5 9 1027.7 1027.7 0.0
21/04:00am 12.9 8.4 2.2 48 4.7 E 15 20 8 11 1027.5 1027.5 0.0
21/03:30am 13.1 9.0 2.1 47 4.7 E 13 20 7 11 1027.3 1027.3 0.0
21/03:00am 12.8 8.3 2.1 48 4.6 ENE 15 20 8 11 1027.3 1027.3 0.0
21/02:30am 13.7 8.4 1.7 44 5.2 E 19 28 10 15 1027.2 1027.2 0.0
21/02:00am 14.1 8.2 1.7 43 5.4 E 22 32 12 17 1027.4 1027.4 0.0
21/01:30am 14.3 9.0 1.9 43 5.4 E 19 28 10 15 1027.6 1027.6 0.0
21/01:00am 14.5 9.6 2.1 43 5.5 E 17 28 9 15 1027.5 1027.5 0.0
21/12:30am 14.7 9.3 2.3 43 5.4 E 20 35 11 19 1027.5 1027.5 0.0
21/12:00am 15.0 9.6 2.2 42 5.6 E 20 28 11 15 1027.4 1027.4 0.0
 
Date/Time
CST
Temp
°C
App
Temp
°C
Dew
Point
Rel
Hum
%
Delta-T
°C
Wind Press
QNH
hPa
Press
MSL
hPa
Rain
since 9 am
mm
Dir
 
Spd
km/h
Gust
km/h
Spd
kts
Gust
kts
20/11:30pm 15.2 9.8 2.4 42 5.7 E 20 30 11 16 1027.4 1027.4 0.0
20/11:00pm 15.5 10.3 2.7 42 5.8 E 19 26 10 14 1027.5 1027.5 0.0
20/10:30pm 15.6 10.8 2.7 42 5.8 ESE 17 26 9 14 1027.7 1027.7 0.0
20/10:00pm 16.0 11.2 2.4 40 6.1 ESE 17 28 9 15 1027.6 1027.6 0.0
20/09:30pm 16.0 11.0 3.4 43 5.7 ESE 19 26 10 14 1027.5 1027.5 0.0
20/09:00pm 16.7 11.3 2.7 39 6.3 ESE 20 28 11 15 1027.3 1027.3 0.0
20/08:30pm 16.9 11.6 2.1 37 6.6 ESE 19 26 10 14 1027.1 1027.1 0.0
20/08:00pm 17.4 12.3 0.6 32 7.3 ESE 17 28 9 15 1027.0 1027.0 0.0
20/07:30pm 18.1 13.2 -0.7 28 8.0 ESE 15 20 8 11 1026.7 1026.7 0.0
20/07:00pm 18.2 13.8 0.4 30 7.8 ESE 13 20 7 11 1026.5 1026.5 0.0
20/06:30pm 19.0 14.6 0.6 29 8.1 ESE 13 17 7 9 1026.2 1026.2 0.0
20/06:00pm 19.8 15.5 1.3 29 8.3 ESE 13 22 7 12 1025.8 1025.8 0.0
20/05:30pm 20.8 15.1 2.6 30 8.5 SE 22 32 12 17 1025.2 1025.2 0.0
20/05:00pm 21.7 16.8 1.9 27 9.2 S 17 20 9 11 1024.8 1024.8 0.0
20/04:30pm 22.5 18.5 0.4 23 10.0 S 11 15 6 8 1024.5 1024.5 0.0
20/04:00pm 22.6 19.3 -0.2 22 10.3 NNE 7 11 4 6 1024.3 1024.3 0.0
20/03:30pm 22.8 19.8 1.8 25 9.8 SSE 7 11 4 6 1024.2 1024.2 0.0
20/03:00pm 22.5 18.9 0.9 24 9.9 SSE 9 17 5 9 1024.2 1024.2 0.0
20/02:30pm 22.8 19.7 1.2 24 9.9 N 7 11 4 6 1024.3 1024.3 0.0
20/02:00pm 22.1 18.0 0.0 23 9.9 NNE 11 17 6 9 1024.4 1024.4 0.0
20/01:30pm 22.2 19.2 1.8 26 9.5 NNW 7 13 4 7 1024.5 1024.5 0.0
20/01:00pm 22.2 18.3 1.3 25 9.6 E 11 17 6 9 1024.8 1024.8 0.0
20/12:30pm 21.8 17.9 0.9 25 9.5 NE 11 22 6 12 1025.1 1025.1 0.0
20/12:00pm 21.5 16.5 1.2 26 9.2 NNE 17 26 9 14 1025.5 1025.5 0.0
20/11:30am 20.7 16.0 1.1 27 8.8 N 15 22 8 12 1026.0 1026.0 0.0
20/11:00am 20.3 14.8 1.7 29 8.5 NE 20 28 11 15 1026.3 1026.3 0.0
20/10:30am 19.7 14.2 1.7 30 8.2 NE 20 26 11 14 1026.6 1026.6 0.0
20/10:00am 18.8 12.8 0.9 30 8.0 NE 22 32 12 17 1026.8 1026.8 0.0
20/09:30am 18.1 10.8 0.3 30 7.7 NE 28 33 15 18 1026.7 1026.7 0.0
20/09:00am 17.8 11.0 0.5 31 7.5 NE 26 35 14 19 1026.4 1026.4 0.0
20/08:30am 16.6 9.3 0.3 33 7.0 NE 28 35 15 19 1026.1 1026.1 0.0
20/08:00am 15.8 9.3 0.0 34 6.7 ENE 24 32 13 17 1025.8 1025.8 0.0
20/07:30am 14.1 9.1 1.1 41 5.5 ENE 17 20 9 11 1025.4 1025.4 0.0
20/07:00am 12.6 7.9 0.7 44 5.0 ENE 15 20 8 11 1025.1 1025.1 0.0
20/06:30am 11.9 6.4 0.7 46 4.6 ENE 19 26 10 14 1024.7 1024.7 0.0
20/06:00am 11.3 6.6 0.7 48 4.4 ENE 15 24 8 13 1024.5 1024.5 0.0
20/05:30am 11.4 6.3 0.8 48 4.4 ENE 17 20 9 11 1024.2 1024.2 0.0
20/05:00am 11.5 6.4 0.6 47 4.5 E 17 20 9 11 1023.7 1023.7 0.0
20/04:30am 11.6 6.5 0.7 47 4.5 ENE 17 24 9 13 1023.4 1023.4 0.0
20/04:00am 11.6 6.5 0.7 47 4.5 ENE 17 22 9 12 1023.2 1023.2 0.0
20/03:30am 11.9 6.8 0.7 46 4.6 ENE 17 24 9 13 1023.1 1023.1 0.0
20/03:00am 12.0 6.5 0.8 46 4.7 ENE 19 26 10 14 1023.1 1023.1 0.0
20/02:30am 12.2 6.7 0.9 46 4.7 ENE 19 28 10 15 1023.1 1023.1 0.0
20/02:00am 12.9 7.2 0.6 43 5.2 E 20 30 11 16 1023.1 1023.1 0.0
20/01:30am 13.0 7.6 1.0 44 5.1 E 19 26 10 14 1023.3 1023.3 0.0
20/01:00am 13.0 8.0 1.4 45 5.0 E 17 24 9 13 1023.4 1023.4 0.0
20/12:30am 13.0 7.5 1.7 46 4.8 E 20 30 11 16 1023.3 1023.3 0.0
20/12:00am 13.3 8.0 1.6 45 5.0 E 19 32 10 17 1023.3 1023.3 0.0
 
Date/Time
CST
Temp
°C
App
Temp
°C
Dew
Point
Rel
Hum
%
Delta-T
°C
Wind Press
QNH
hPa
Press
MSL
hPa
Rain
since 9 am
mm
Dir
 
Spd
km/h
Gust
km/h
Spd
kts
Gust
kts
19/11:30pm 13.3 8.0 1.9 46 4.9 E 19 28 10 15 1023.3 1023.3 0.0
19/11:00pm 13.3 8.1 2.2 47 4.8 E 19 28 10 15 1023.4 1023.4 0.0
19/10:30pm 13.6 8.5 2.8 48 4.8 E 19 28 10 15 1023.6 1023.6 0.0
19/10:00pm 13.3 8.5 2.8 49 4.6 ESE 17 22 9 12 1023.8 1023.8 0.0
19/09:30pm 13.9 9.4 1.9 44 5.2 ESE 15 20 8 11 1023.8 1023.8 0.0
19/09:00pm 14.5 9.8 0.7 39 5.9 E 15 20 8 11 1023.9 1023.9 0.0
19/08:30pm 14.1 9.8 1.1 41 5.5 E 13 17 7 9 1023.9 1023.9 0.0
19/08:00pm 14.5 10.3 1.4 41 5.7 E 13 19 7 10 1023.8 1023.8 0.0
19/07:30pm 14.8 11.0 2.0 42 5.6 E 11 15 6 8 1023.6 1023.6 0.0
19/07:00pm 15.7 11.9 1.8 39 6.1 E 11 17 6 9 1023.5 1023.5 0.0
19/06:30pm 16.4 12.8 0.9 35 6.7 E 9 15 5 8 1023.2 1023.2 0.0
19/06:00pm 16.3 12.9 1.6 37 6.5 ENE 9 11 5 6 1023.0 1023.0 0.0
19/05:30pm 17.7 13.4 1.2 33 7.3 ENE 13 20 7 11 1022.8 1022.8 0.0
19/05:00pm 18.4 14.2 1.4 32 7.6 NE 13 24 7 13 1022.6 1022.6 0.0
19/04:30pm 18.8 15.1 2.2 33 7.6 NE 11 19 6 10 1022.5 1022.5 0.0
19/04:00pm 19.1 14.5 1.6 31 7.9 NE 15 22 8 12 1022.6 1022.6 0.0
19/03:30pm 19.2 14.3 1.7 31 7.9 N 17 22 9 12 1022.8 1022.8 0.0
19/03:00pm 18.9 13.8 0.5 29 8.1 NE 17 28 9 15 1023.0 1023.0 0.0
19/02:30pm 18.7 14.8 1.2 31 7.8 NNE 11 19 6 10 1023.2 1023.2 0.0
19/02:00pm 19.3 15.3 2.6 33 7.7 NE 13 20 7 11 1023.3 1023.3 0.0
19/01:30pm 18.0 14.2 1.9 34 7.2 ENE 11 17 6 9 1023.7 1023.7 0.0
19/01:00pm 18.4 13.1 1.9 33 7.5 NE 19 33 10 18 1024.0 1024.0 0.0
19/12:30pm 17.9 13.3 1.4 33 7.3 NNE 15 22 8 12 1024.4 1024.4 0.0
19/12:00pm 17.7 13.4 0.8 32 7.4 NE 13 24 7 13 1024.8 1024.8 0.0
19/11:30am 17.7 12.5 2.5 36 6.9 NNE 19 30 10 16 1025.2 1025.2 0.0
19/11:00am 17.0 11.2 2.2 37 6.7 ENE 22 26 12 14 1025.5 1025.5 0.0
19/10:30am 16.5 10.3 2.2 38 6.4 NE 24 30 13 16 1025.8 1025.8 0.0
19/10:00am 15.8 10.1 2.9 42 5.8 ENE 22 30 12 16 1026.0 1026.0 0.0
19/09:30am 15.5 10.9 3.6 45 5.4 NE 17 30 9 16 1026.3 1026.3 0.0
19/09:00am 14.4 10.0 5.0 53 4.4 ENE 17 22 9 12 1026.3 1026.3 0.6
19/08:30am 13.6 9.7 5.3 57 3.9 ENE 15 22 8 12 1026.2 1026.2 0.6
19/08:00am 12.5 9.3 5.2 61 3.4 ENE 11 17 6 9 1025.9 1025.9 0.6

Other Formats:

Comma delimited format used in spreadsheet applications
http://www.bom.gov.au/fwo/IDS60801/IDS60801.95676.axf

JavaScript Object Notation format (JSON) in row-major order
http://www.bom.gov.au/fwo/IDS60801/IDS60801.95676.json